DAL978 KDTW-KBUF
Flight info
| Callsign | DAL978 |
|---|---|
| Flight time | 0h 44m |
| Altitude | 27000 |
| Route | HHOWE4 BROKK DKK |
| Aircraft | A20N/M-SDE2E3FGHIRWXY/LB1 |
Departure
| Time | 2026-05-08 01:45 |
|---|---|
| Airport | Detroit Metropolitan Wayne County Airport (KDTW) |
Arrival
| Time | 2026-05-08 02:29 |
|---|---|
| Airport | Buffalo Niagara International Airport (KBUF) |
| Time | Latitude | Longitude | Altitude | Speed | Heading |
|---|---|---|---|---|---|
| 2026-05-08 01:24 | 42.20438 | -83.36039 | 646 ft | 0 kts | 297° |
| 2026-05-08 01:32 | 42.20431 | -83.36019 | 647 ft | 2 kts | 289° |
| 2026-05-08 01:32 | 42.20427 | -83.35998 | 650 ft | 2 kts | 275° |
| 2026-05-08 01:32 | 42.20428 | -83.35975 | 649 ft | 2 kts | 251° |
| 2026-05-08 01:32 | 42.20435 | -83.35956 | 647 ft | 2 kts | 225° |
| 2026-05-08 01:33 | 42.20447 | -83.35943 | 646 ft | 1 kts | 212° |
| 2026-05-08 01:33 | 42.20451 | -83.35940 | 646 ft | 0 kts | 212° |
| 2026-05-08 01:35 | 42.20442 | -83.35947 | 648 ft | 3 kts | 212° |
| 2026-05-08 01:35 | 42.20408 | -83.35974 | 648 ft | 8 kts | 207° |
| 2026-05-08 01:35 | 42.20345 | -83.36020 | 646 ft | 12 kts | 208° |
| 2026-05-08 01:35 | 42.20260 | -83.36082 | 646 ft | 16 kts | 209° |
| 2026-05-08 01:36 | 42.20179 | -83.36138 | 646 ft | 0 kts | 195° |
| 2026-05-08 01:36 | 42.20169 | -83.36132 | 646 ft | 5 kts | 153° |
| 2026-05-08 01:36 | 42.20165 | -83.36069 | 646 ft | 11 kts | 89° |
| 2026-05-08 01:36 | 42.20139 | -83.36016 | 646 ft | 7 kts | 172° |
| 2026-05-08 01:37 | 42.20082 | -83.35988 | 646 ft | 10 kts | 129° |
| 2026-05-08 01:37 | 42.20071 | -83.35891 | 646 ft | 7 kts | 88° |
| 2026-05-08 01:37 | 42.20073 | -83.35806 | 646 ft | 11 kts | 88° |
| 2026-05-08 01:37 | 42.20077 | -83.35689 | 646 ft | 14 kts | 88° |
| 2026-05-08 01:38 | 42.20077 | -83.35573 | 647 ft | 11 kts | 90° |
| 2026-05-08 01:38 | 42.20079 | -83.35455 | 647 ft | 14 kts | 87° |
| 2026-05-08 01:38 | 42.20080 | -83.35310 | 647 ft | 16 kts | 89° |
| 2026-05-08 01:38 | 42.20150 | -83.35222 | 648 ft | 15 kts | 27° |
| 2026-05-08 01:39 | 42.20253 | -83.35149 | 647 ft | 18 kts | 27° |
| 2026-05-08 01:39 | 42.20369 | -83.35062 | 647 ft | 20 kts | 29° |
| 2026-05-08 01:39 | 42.20473 | -83.35002 | 647 ft | 11 kts | 350° |
| 2026-05-08 01:39 | 42.20556 | -83.35006 | 647 ft | 13 kts | 32° |
| 2026-05-08 01:40 | 42.20648 | -83.34938 | 647 ft | 17 kts | 28° |
| 2026-05-08 01:40 | 42.20764 | -83.34853 | 647 ft | 20 kts | 31° |
| 2026-05-08 01:40 | 42.20859 | -83.34712 | 649 ft | 22 kts | 60° |
| 2026-05-08 01:40 | 42.20991 | -83.34605 | 647 ft | 23 kts | 27° |
| 2026-05-08 01:41 | 42.21140 | -83.34503 | 647 ft | 25 kts | 28° |
| 2026-05-08 01:41 | 42.21294 | -83.34380 | 647 ft | 26 kts | 29° |
| 2026-05-08 01:41 | 42.21458 | -83.34260 | 647 ft | 27 kts | 30° |
| 2026-05-08 01:41 | 42.21635 | -83.34166 | 646 ft | 28 kts | 359° |
| 2026-05-08 01:42 | 42.21833 | -83.34163 | 646 ft | 28 kts | 11° |
| 2026-05-08 01:42 | 42.22010 | -83.34047 | 646 ft | 29 kts | 30° |
| 2026-05-08 01:42 | 42.22188 | -83.33915 | 649 ft | 30 kts | 29° |
| 2026-05-08 01:42 | 42.22372 | -83.33784 | 647 ft | 30 kts | 26° |
| 2026-05-08 01:43 | 42.22540 | -83.33665 | 647 ft | 26 kts | 29° |
| 2026-05-08 01:43 | 42.22644 | -83.33585 | 647 ft | 8 kts | 22° |
| 2026-05-08 01:43 | 42.22686 | -83.33632 | 646 ft | 10 kts | 300° |
| 2026-05-08 01:43 | 42.22693 | -83.33715 | 646 ft | 8 kts | 218° |
| 2026-05-08 01:44 | 42.22614 | -83.33776 | 646 ft | 27 kts | 208° |
| 2026-05-08 01:44 | 42.22253 | -83.34042 | 646 ft | 93 kts | 207° |
| 2026-05-08 01:44 | 42.21525 | -83.34576 | 648 ft | 145 kts | 208° |
| 2026-05-08 01:44 | 42.20548 | -83.35316 | 901 ft | 167 kts | 211° |
| 2026-05-08 01:45 | 42.19476 | -83.35970 | 1502 ft | 173 kts | 200° |
| 2026-05-08 01:45 | 42.18254 | -83.36179 | 2138 ft | 184 kts | 177° |
| 2026-05-08 01:45 | 42.17007 | -83.35684 | 2822 ft | 188 kts | 163° |
| 2026-05-08 01:45 | 42.15782 | -83.35037 | 3421 ft | 192 kts | 163° |
| 2026-05-08 01:46 | 42.14506 | -83.34371 | 3999 ft | 204 kts | 150° |
| 2026-05-08 01:46 | 42.13698 | -83.32678 | 4304 ft | 239 kts | 99° |
| 2026-05-08 01:46 | 42.13816 | -83.30279 | 4517 ft | 276 kts | 79° |
| 2026-05-08 01:46 | 42.14208 | -83.27594 | 4860 ft | 302 kts | 77° |
| 2026-05-08 01:47 | 42.14665 | -83.24901 | 4998 ft | 286 kts | 77° |
| 2026-05-08 01:47 | 42.15011 | -83.22308 | 5007 ft | 280 kts | 81° |
| 2026-05-08 01:47 | 42.15313 | -83.19699 | 5304 ft | 284 kts | 81° |
| 2026-05-08 01:48 | 42.15993 | -83.14418 | 7267 ft | 289 kts | 79° |
| 2026-05-08 01:48 | 42.16369 | -83.11751 | 8120 ft | 298 kts | 78° |
| 2026-05-08 01:48 | 42.16771 | -83.08969 | 9029 ft | 305 kts | 78° |
| 2026-05-08 01:48 | 42.17183 | -83.06140 | 9920 ft | 313 kts | 78° |
| 2026-05-08 01:49 | 42.17614 | -83.03187 | 10515 ft | 331 kts | 78° |
| 2026-05-08 01:49 | 42.18074 | -83.00026 | 10842 ft | 355 kts | 78° |
| 2026-05-08 01:49 | 42.18561 | -82.96666 | 11356 ft | 371 kts | 78° |
| 2026-05-08 01:49 | 42.19057 | -82.93219 | 12151 ft | 378 kts | 77° |
| 2026-05-08 01:50 | 42.19555 | -82.89754 | 12929 ft | 385 kts | 77° |
| 2026-05-08 01:50 | 42.20074 | -82.86124 | 13712 ft | 392 kts | 77° |
| 2026-05-08 01:50 | 42.20583 | -82.82571 | 14438 ft | 396 kts | 77° |
| 2026-05-08 01:50 | 42.21112 | -82.78864 | 15234 ft | 400 kts | 76° |
| 2026-05-08 01:51 | 42.21640 | -82.75154 | 15999 ft | 404 kts | 76° |
| 2026-05-08 01:51 | 42.22171 | -82.71417 | 16760 ft | 407 kts | 76° |
| 2026-05-08 01:51 | 42.22706 | -82.67645 | 17522 ft | 411 kts | 76° |
| 2026-05-08 01:51 | 42.23247 | -82.63827 | 18265 ft | 415 kts | 76° |
| 2026-05-08 01:52 | 42.23789 | -82.59990 | 18907 ft | 419 kts | 76° |
| 2026-05-08 01:52 | 42.24337 | -82.56103 | 19533 ft | 423 kts | 76° |
| 2026-05-08 01:52 | 42.24882 | -82.52226 | 20151 ft | 427 kts | 75° |
| 2026-05-08 01:52 | 42.25435 | -82.48276 | 20767 ft | 431 kts | 75° |
| 2026-05-08 01:53 | 42.25866 | -82.44245 | 21373 ft | 437 kts | 80° |
| 2026-05-08 01:53 | 42.26219 | -82.40141 | 21968 ft | 441 kts | 79° |
| 2026-05-08 01:53 | 42.26557 | -82.36009 | 22560 ft | 445 kts | 80° |
| 2026-05-08 01:53 | 42.26925 | -82.31822 | 23142 ft | 449 kts | 79° |
| 2026-05-08 01:54 | 42.27303 | -82.27606 | 23689 ft | 454 kts | 79° |
| 2026-05-08 01:54 | 42.27677 | -82.23409 | 24139 ft | 458 kts | 79° |
| 2026-05-08 01:54 | 42.28054 | -82.19109 | 24580 ft | 463 kts | 80° |
| 2026-05-08 01:54 | 42.28429 | -82.14774 | 25017 ft | 468 kts | 80° |
| 2026-05-08 01:55 | 42.28804 | -82.10393 | 25448 ft | 472 kts | 80° |
| 2026-05-08 01:55 | 42.29180 | -82.05970 | 25871 ft | 476 kts | 80° |
| 2026-05-08 01:55 | 42.29559 | -82.01498 | 26274 ft | 481 kts | 80° |
| 2026-05-08 01:55 | 42.29940 | -81.96981 | 26693 ft | 485 kts | 81° |
| 2026-05-08 01:56 | 42.30322 | -81.92438 | 26919 ft | 489 kts | 81° |
| 2026-05-08 01:56 | 42.30704 | -81.87874 | 26946 ft | 489 kts | 81° |
| 2026-05-08 01:56 | 42.31082 | -81.83318 | 26946 ft | 488 kts | 81° |
| 2026-05-08 01:56 | 42.31455 | -81.78807 | 26948 ft | 488 kts | 81° |
| 2026-05-08 01:57 | 42.31829 | -81.74263 | 26950 ft | 488 kts | 81° |
| 2026-05-08 01:57 | 42.32204 | -81.69695 | 26949 ft | 488 kts | 81° |
| 2026-05-08 01:57 | 42.32576 | -81.65128 | 26953 ft | 488 kts | 81° |
| 2026-05-08 01:57 | 42.32946 | -81.60579 | 26955 ft | 488 kts | 81° |
| 2026-05-08 01:58 | 42.33315 | -81.56000 | 26954 ft | 487 kts | 81° |
| 2026-05-08 01:58 | 42.33669 | -81.51493 | 26954 ft | 487 kts | 81° |
| 2026-05-08 01:58 | 42.34025 | -81.46929 | 26957 ft | 487 kts | 81° |
| 2026-05-08 01:58 | 42.34380 | -81.42363 | 26955 ft | 487 kts | 81° |
| 2026-05-08 01:59 | 42.34734 | -81.37807 | 26957 ft | 487 kts | 81° |
| 2026-05-08 01:59 | 42.35087 | -81.33236 | 26956 ft | 487 kts | 81° |
| 2026-05-08 01:59 | 42.35437 | -81.28684 | 26955 ft | 487 kts | 82° |
| 2026-05-08 01:59 | 42.35786 | -81.24114 | 26962 ft | 487 kts | 82° |
| 2026-05-08 02:00 | 42.36131 | -81.19563 | 26958 ft | 487 kts | 82° |
| 2026-05-08 02:00 | 42.36471 | -81.15072 | 26960 ft | 487 kts | 82° |
| 2026-05-08 02:00 | 42.36814 | -81.10504 | 26961 ft | 488 kts | 82° |
| 2026-05-08 02:00 | 42.37155 | -81.05937 | 26956 ft | 488 kts | 82° |
| 2026-05-08 02:01 | 42.37494 | -81.01381 | 26961 ft | 487 kts | 82° |
| 2026-05-08 02:01 | 42.37832 | -80.96803 | 26962 ft | 488 kts | 82° |
| 2026-05-08 02:01 | 42.38169 | -80.92216 | 26961 ft | 488 kts | 82° |
| 2026-05-08 02:01 | 42.38504 | -80.87642 | 26963 ft | 488 kts | 82° |
| 2026-05-08 02:02 | 42.38836 | -80.83074 | 26966 ft | 488 kts | 82° |
| 2026-05-08 02:02 | 42.39166 | -80.78506 | 26959 ft | 488 kts | 82° |
| 2026-05-08 02:02 | 42.39495 | -80.73933 | 26960 ft | 488 kts | 82° |
| 2026-05-08 02:02 | 42.39817 | -80.69423 | 26961 ft | 489 kts | 82° |
| 2026-05-08 02:03 | 42.40140 | -80.64884 | 26933 ft | 487 kts | 82° |
| 2026-05-08 02:03 | 42.40463 | -80.60298 | 26631 ft | 484 kts | 82° |
| 2026-05-08 02:03 | 42.40780 | -80.55780 | 26188 ft | 480 kts | 82° |
| 2026-05-08 02:03 | 42.41091 | -80.51310 | 25700 ft | 474 kts | 82° |
| 2026-05-08 02:04 | 42.41295 | -80.48362 | 25365 ft | 471 kts | 82° |
| 2026-05-08 02:04 | 42.41598 | -80.43980 | 24871 ft | 465 kts | 82° |
| 2026-05-08 02:04 | 42.41895 | -80.39652 | 24383 ft | 459 kts | 82° |
| 2026-05-08 02:04 | 42.42188 | -80.35370 | 23899 ft | 454 kts | 82° |
| 2026-05-08 02:05 | 42.42477 | -80.31128 | 23397 ft | 449 kts | 82° |
| 2026-05-08 02:05 | 42.42761 | -80.26933 | 22816 ft | 444 kts | 82° |
| 2026-05-08 02:05 | 42.43040 | -80.22792 | 22239 ft | 439 kts | 82° |
| 2026-05-08 02:05 | 42.43315 | -80.18693 | 21673 ft | 434 kts | 82° |
| 2026-05-08 02:06 | 42.43582 | -80.14694 | 21124 ft | 430 kts | 82° |
| 2026-05-08 02:06 | 42.43850 | -80.10655 | 20562 ft | 425 kts | 82° |
| 2026-05-08 02:06 | 42.44111 | -80.06685 | 20048 ft | 421 kts | 82° |
| 2026-05-08 02:06 | 42.44365 | -80.02820 | 19520 ft | 417 kts | 82° |
| 2026-05-08 02:07 | 42.44619 | -79.98920 | 19002 ft | 412 kts | 83° |
| 2026-05-08 02:07 | 42.44869 | -79.95076 | 18494 ft | 408 kts | 83° |
| 2026-05-08 02:07 | 42.45115 | -79.91263 | 17948 ft | 404 kts | 83° |
| 2026-05-08 02:07 | 42.45359 | -79.87473 | 17368 ft | 401 kts | 83° |
| 2026-05-08 02:08 | 42.45598 | -79.83726 | 16798 ft | 397 kts | 83° |
| 2026-05-08 02:08 | 42.45834 | -79.80001 | 16246 ft | 394 kts | 83° |
| 2026-05-08 02:08 | 42.46066 | -79.76329 | 15703 ft | 391 kts | 83° |
| 2026-05-08 02:08 | 42.46293 | -79.72731 | 15180 ft | 388 kts | 83° |
| 2026-05-08 02:09 | 42.46520 | -79.69097 | 14648 ft | 385 kts | 83° |
| 2026-05-08 02:09 | 42.46745 | -79.65480 | 14138 ft | 382 kts | 83° |
| 2026-05-08 02:09 | 42.46966 | -79.61909 | 13623 ft | 379 kts | 83° |
| 2026-05-08 02:09 | 42.47184 | -79.58369 | 13081 ft | 376 kts | 83° |
| 2026-05-08 02:10 | 42.47399 | -79.54861 | 12546 ft | 372 kts | 83° |
| 2026-05-08 02:10 | 42.47612 | -79.51377 | 12033 ft | 369 kts | 83° |
| 2026-05-08 02:10 | 42.47822 | -79.47923 | 11521 ft | 366 kts | 83° |
| 2026-05-08 02:10 | 42.48028 | -79.44513 | 11121 ft | 361 kts | 84° |
| 2026-05-08 02:11 | 42.48232 | -79.41115 | 11029 ft | 364 kts | 84° |
| 2026-05-08 02:11 | 42.48437 | -79.37698 | 11030 ft | 363 kts | 84° |
| 2026-05-08 02:11 | 42.48641 | -79.34285 | 11029 ft | 363 kts | 84° |
| 2026-05-08 02:11 | 42.48889 | -79.30888 | 11013 ft | 362 kts | 77° |
| 2026-05-08 02:12 | 42.49762 | -79.27745 | 10845 ft | 353 kts | 55° |
| 2026-05-08 02:12 | 42.51161 | -79.25045 | 10478 ft | 348 kts | 50° |
| 2026-05-08 02:12 | 42.52564 | -79.22455 | 10095 ft | 338 kts | 50° |
| 2026-05-08 02:12 | 42.53923 | -79.19943 | 9708 ft | 325 kts | 50° |
| 2026-05-08 02:13 | 42.55240 | -79.17509 | 9296 ft | 314 kts | 50° |
| 2026-05-08 02:13 | 42.56518 | -79.15147 | 9055 ft | 309 kts | 50° |
| 2026-05-08 02:13 | 42.57799 | -79.12791 | 9018 ft | 311 kts | 50° |
| 2026-05-08 02:13 | 42.59083 | -79.10433 | 9017 ft | 307 kts | 50° |
| 2026-05-08 02:14 | 42.60334 | -79.08131 | 9013 ft | 300 kts | 50° |
| 2026-05-08 02:14 | 42.61568 | -79.05862 | 9011 ft | 299 kts | 50° |
| 2026-05-08 02:14 | 42.62810 | -79.03581 | 9009 ft | 300 kts | 50° |
| 2026-05-08 02:14 | 42.64054 | -79.01301 | 9008 ft | 300 kts | 50° |
| 2026-05-08 02:15 | 42.65296 | -78.99026 | 9002 ft | 300 kts | 50° |
| 2026-05-08 02:15 | 42.66540 | -78.96747 | 9002 ft | 300 kts | 50° |
| 2026-05-08 02:15 | 42.67782 | -78.94474 | 8999 ft | 299 kts | 50° |
| 2026-05-08 02:15 | 42.69010 | -78.92228 | 8994 ft | 300 kts | 50° |
| 2026-05-08 02:16 | 42.70256 | -78.89952 | 8994 ft | 300 kts | 50° |
| 2026-05-08 02:16 | 42.71501 | -78.87680 | 8992 ft | 300 kts | 50° |
| 2026-05-08 02:16 | 42.72748 | -78.85401 | 8994 ft | 300 kts | 50° |
| 2026-05-08 02:16 | 42.73997 | -78.83124 | 8993 ft | 300 kts | 50° |
| 2026-05-08 02:17 | 42.75244 | -78.80856 | 8992 ft | 300 kts | 50° |
| 2026-05-08 02:17 | 42.76498 | -78.78577 | 8995 ft | 300 kts | 50° |
| 2026-05-08 02:17 | 42.77746 | -78.76312 | 8994 ft | 300 kts | 50° |
| 2026-05-08 02:17 | 42.78990 | -78.74057 | 8995 ft | 300 kts | 50° |
| 2026-05-08 02:18 | 42.80249 | -78.71777 | 8994 ft | 294 kts | 50° |
| 2026-05-08 02:18 | 42.81438 | -78.69613 | 8992 ft | 279 kts | 50° |
| 2026-05-08 02:18 | 42.82569 | -78.67543 | 8953 ft | 266 kts | 50° |
| 2026-05-08 02:18 | 42.83667 | -78.65532 | 8633 ft | 265 kts | 49° |
| 2026-05-08 02:19 | 42.84779 | -78.63495 | 8071 ft | 267 kts | 50° |
| 2026-05-08 02:19 | 42.85879 | -78.61491 | 7513 ft | 269 kts | 49° |
| 2026-05-08 02:19 | 42.87003 | -78.59448 | 6942 ft | 270 kts | 49° |
| 2026-05-08 02:19 | 42.88138 | -78.57391 | 6362 ft | 272 kts | 49° |
| 2026-05-08 02:20 | 42.89286 | -78.55325 | 5751 ft | 273 kts | 50° |
| 2026-05-08 02:20 | 42.90447 | -78.53262 | 5203 ft | 272 kts | 49° |
| 2026-05-08 02:20 | 42.91566 | -78.51291 | 5011 ft | 256 kts | 49° |
| 2026-05-08 02:20 | 42.92622 | -78.49427 | 4994 ft | 247 kts | 49° |
| 2026-05-08 02:21 | 42.93677 | -78.47568 | 4993 ft | 247 kts | 49° |
| 2026-05-08 02:21 | 42.94730 | -78.45717 | 4992 ft | 246 kts | 49° |
| 2026-05-08 02:21 | 42.95793 | -78.43854 | 4993 ft | 249 kts | 49° |
| 2026-05-08 02:21 | 42.96862 | -78.42008 | 4989 ft | 245 kts | 44° |
| 2026-05-08 02:22 | 42.98239 | -78.40765 | 4995 ft | 235 kts | 12° |
| 2026-05-08 02:22 | 42.99760 | -78.40683 | 4993 ft | 217 kts | 340° |
| 2026-05-08 02:22 | 43.01014 | -78.41743 | 4993 ft | 213 kts | 306° |
| 2026-05-08 02:22 | 43.01832 | -78.43413 | 4992 ft | 211 kts | 299° |
| 2026-05-08 02:23 | 43.02598 | -78.45116 | 4986 ft | 209 kts | 299° |
| 2026-05-08 02:23 | 43.03362 | -78.46822 | 4815 ft | 212 kts | 299° |
| 2026-05-08 02:23 | 43.04131 | -78.48552 | 4389 ft | 215 kts | 299° |
| 2026-05-08 02:23 | 43.04913 | -78.50321 | 3935 ft | 218 kts | 299° |
| 2026-05-08 02:24 | 43.05695 | -78.52094 | 3572 ft | 217 kts | 299° |
| 2026-05-08 02:24 | 43.06323 | -78.53950 | 3198 ft | 215 kts | 278° |
| 2026-05-08 02:24 | 43.06153 | -78.55916 | 3015 ft | 206 kts | 251° |
| 2026-05-08 02:24 | 43.05552 | -78.57616 | 2989 ft | 192 kts | 236° |
| 2026-05-08 02:25 | 43.04729 | -78.58922 | 3020 ft | 179 kts | 228° |
| 2026-05-08 02:25 | 43.03823 | -78.60100 | 2985 ft | 172 kts | 226° |
| 2026-05-08 02:25 | 43.02998 | -78.61186 | 2998 ft | 163 kts | 227° |
| 2026-05-08 02:25 | 43.02177 | -78.62266 | 2881 ft | 165 kts | 227° |
| 2026-05-08 02:26 | 43.01373 | -78.63323 | 2650 ft | 160 kts | 227° |
| 2026-05-08 02:26 | 43.00565 | -78.64387 | 2427 ft | 155 kts | 227° |
| 2026-05-08 02:26 | 42.99825 | -78.65359 | 2225 ft | 139 kts | 227° |
| 2026-05-08 02:26 | 42.99130 | -78.66275 | 2033 ft | 140 kts | 227° |
| 2026-05-08 02:27 | 42.98430 | -78.67195 | 1828 ft | 139 kts | 227° |
| 2026-05-08 02:27 | 42.97743 | -78.68097 | 1639 ft | 138 kts | 227° |
| 2026-05-08 02:27 | 42.97052 | -78.69006 | 1413 ft | 139 kts | 227° |
| 2026-05-08 02:27 | 42.96342 | -78.69940 | 1234 ft | 143 kts | 227° |
| 2026-05-08 02:28 | 42.95617 | -78.70866 | 1020 ft | 143 kts | 226° |
| 2026-05-08 02:28 | 42.94904 | -78.71819 | 808 ft | 143 kts | 229° |
| 2026-05-08 02:28 | 42.94202 | -78.72732 | 718 ft | 125 kts | 232° |
| 2026-05-08 02:28 | 42.93741 | -78.73356 | 721 ft | 57 kts | 224° |
| 2026-05-08 02:29 | 42.93538 | -78.73620 | 714 ft | 26 kts | 224° |
| 2026-05-08 02:29 | 42.93405 | -78.73643 | 715 ft | 16 kts | 149° |
| 2026-05-08 02:29 | 42.93398 | -78.73602 | 712 ft | 4 kts | 58° |
| 2026-05-08 02:29 | 42.93427 | -78.73560 | 712 ft | 8 kts | 44° |
| 2026-05-08 02:30 | 42.93472 | -78.73503 | 715 ft | 9 kts | 42° |
| 2026-05-08 02:30 | 42.93519 | -78.73441 | 716 ft | 10 kts | 44° |
| 2026-05-08 02:30 | 42.93572 | -78.73371 | 716 ft | 12 kts | 45° |
| 2026-05-08 02:30 | 42.93639 | -78.73282 | 716 ft | 15 kts | 43° |
| 2026-05-08 02:31 | 42.93715 | -78.73184 | 718 ft | 16 kts | 43° |
| 2026-05-08 02:31 | 42.93761 | -78.73072 | 712 ft | 14 kts | 102° |
| 2026-05-08 02:31 | 42.93709 | -78.73016 | 714 ft | 5 kts | 146° |
| 2026-05-08 02:31 | 42.93689 | -78.72995 | 710 ft | 2 kts | 143° |
| 2026-05-08 02:32 | 42.93683 | -78.72989 | 710 ft | 0 kts | 144° |